Time;durP1;ratioP1;P1;durP2;ratioP2;P2;SDS_P1;SDS_P2;PMS_P1;PMS_P2;Temp;Humidity;BMP_temperature;BMP_pressure;BME280_temperature;BME280_humidity;BME280_pressure;Samples;Min_cycle;Max_cycle;Signal;HPM_P1;HPM_P2
2023/05/14 00:02:15;;;;;;;4.50;3.60;;;;;;;12.84;65.02;97678.28;5007831;28;20579;-65
2023/05/14 00:04:42;;;;;;;7.20;3.60;;;;;;;12.61;65.82;97674.09;5008043;28;20210;-65
2023/05/14 00:07:09;;;;;;;5.63;3.73;;;;;;;12.79;65.56;97675.91;5007917;28;20224;-65
2023/05/14 00:09:36;;;;;;;5.43;3.40;;;;;;;12.79;65.75;97678.50;5007861;28;20223;-64
2023/05/14 00:12:03;;;;;;;4.67;3.50;;;;;;;12.82;64.87;97686.16;5022910;28;20700;-65
2023/05/14 00:14:30;;;;;;;4.33;3.47;;;;;;;12.80;65.35;97684.53;5007919;28;20203;-66
2023/05/14 00:16:58;;;;;;;3.43;3.13;;;;;;;13.01;65.05;97687.03;5006907;28;20199;-64
2023/05/14 00:19:26;;;;;;;7.37;3.83;;;;;;;12.97;65.38;97677.69;5007405;28;20240;-78
2023/05/14 00:21:53;;;;;;;4.87;3.40;;;;;;;12.95;65.14;97666.50;5007713;28;20200;-75
2023/05/14 00:24:20;;;;;;;4.20;3.80;;;;;;;12.93;64.74;97681.31;5007543;28;20197;-67
2023/05/14 00:26:46;;;;;;;4.27;3.20;;;;;;;12.98;64.84;97679.34;5007635;28;20623;-68
2023/05/14 00:29:13;;;;;;;6.17;3.80;;;;;;;13.00;65.00;97674.91;5006361;28;20194;-68
2023/05/14 00:31:41;;;;;;;6.10;3.87;;;;;;;12.84;65.77;97645.34;5007226;28;20213;-69
2023/05/14 00:34:08;;;;;;;4.73;4.10;;;;;;;12.52;67.03;97658.91;5008017;28;20248;-74
2023/05/14 00:36:34;;;;;;;5.07;3.67;;;;;;;12.60;67.35;97659.41;4990235;28;20189;-75
2023/05/14 00:39:02;;;;;;;4.23;3.60;;;;;;;12.60;67.21;97667.22;5006420;28;20194;-70
2023/05/14 00:41:29;;;;;;;5.60;3.80;;;;;;;12.65;66.37;97657.44;5006130;28;20188;-74
2023/05/14 00:43:56;;;;;;;7.07;3.80;;;;;;;12.62;67.34;97662.78;5007270;28;20266;-66
2023/05/14 00:46:23;;;;;;;8.30;4.53;;;;;;;12.50;67.55;97660.75;5005969;28;20291;-74
2023/05/14 00:48:50;;;;;;;6.47;4.20;;;;;;;12.52;67.60;97653.72;5007459;28;20198;-75
2023/05/14 00:51:17;;;;;;;4.70;4.20;;;;;;;12.57;67.41;97659.53;5007427;28;20200;-71
2023/05/14 00:53:45;;;;;;;8.17;4.40;;;;;;;12.52;68.21;97653.72;5007087;28;20199;-67
2023/05/14 00:56:14;;;;;;;6.40;4.53;;;;;;;12.71;66.91;97659.81;5007658;28;20185;-66
2023/05/14 00:58:41;;;;;;;5.07;4.10;;;;;;;12.79;67.00;97670.69;5007362;28;20199;-79
2023/05/14 01:01:09;;;;;;;6.17;4.20;;;;;;;12.77;65.56;97650.88;5007169;28;20218;-78
2023/05/14 01:03:36;;;;;;;6.17;4.10;;;;;;;12.89;66.21;97656.38;4989388;28;20198;-74
2023/05/14 01:06:27;;;;;;;5.17;4.27;;;;;;;12.68;66.80;97657.31;5005671;28;20184;-68
2023/05/14 01:09:21;;;;;;;5.93;4.50;;;;;;;12.39;68.44;97655.16;5007432;28;20221;-71
2023/05/14 01:11:54;;;;;;;6.93;4.07;;;;;;;11.89;69.66;97633.09;5006920;28;20308;-65
2023/05/14 01:14:53;;;;;;;5.63;4.23;;;;;;;12.03;70.01;97638.56;5007063;28;20188;-73
2023/05/14 01:17:23;;;;;;;4.13;3.73;;;;;;;12.16;68.87;97631.91;5007352;28;20196;-65
2023/05/14 01:19:51;;;;;;;5.43;4.20;;;;;;;12.11;68.80;97639.06;5006919;28;20231;-67
2023/05/14 01:22:18;;;;;;;5.57;4.20;;;;;;;11.93;69.55;97639.84;4989725;28;20188;-74
2023/05/14 01:24:45;;;;;;;6.77;4.57;;;;;;;11.83;70.35;97628.16;5005603;28;20193;-75
2023/05/14 01:27:34;;;;;;;5.80;4.23;;;;;;;12.05;70.09;97640.19;5006853;28;20227;-72
2023/05/14 01:30:21;;;;;;;5.93;4.40;;;;;;;11.94;71.26;97637.19;5005779;28;20194;-79
2023/05/14 01:32:55;;;;;;;5.87;4.40;;;;;;;11.74;71.66;97633.72;5006748;28;20185;-66
2023/05/14 01:35:26;;;;;;;7.23;4.63;;;;;;;11.81;71.58;97630.78;5005611;28;20672;-65
2023/05/14 01:37:56;;;;;;;5.67;4.43;;;;;;;11.74;72.67;97631.13;5006785;28;20209;-80
2023/05/14 01:40:24;;;;;;;8.23;4.40;;;;;;;11.67;72.49;97620.16;5005466;28;20199;-72
2023/05/14 01:42:52;;;;;;;5.80;4.53;;;;;;;11.69;72.31;97613.13;5007304;28;20292;-75
2023/05/14 01:45:20;;;;;;;6.30;4.80;;;;;;;11.86;72.18;97615.03;5010521;28;20210;-71
2023/05/14 01:47:47;;;;;;;6.03;4.40;;;;;;;12.00;71.51;97616.16;5010629;28;20231;-72
2023/05/14 01:50:15;;;;;;;6.73;4.90;;;;;;;12.13;71.08;97621.69;5008734;28;20220;-69
2023/05/14 01:52:42;;;;;;;5.73;4.00;;;;;;;11.98;70.97;97623.16;5025631;28;20634;-70
2023/05/14 01:55:09;;;;;;;6.13;5.37;;;;;;;11.92;72.12;97633.81;5010673;28;20820;-74
2023/05/14 01:57:36;;;;;;;5.03;3.90;;;;;;;12.01;71.60;97620.41;5010304;28;20204;-79
2023/05/14 02:00:04;;;;;;;4.77;4.00;;;;;;;12.11;71.13;97619.16;5009084;28;20195;-81
2023/05/14 02:02:39;;;;;;;4.73;3.57;;;;;;;12.20;70.89;97618.75;5010144;28;20201;-82
2023/05/14 02:05:12;;;;;;;6.00;4.37;;;;;;;12.06;71.13;97602.06;5009449;28;20697;-81
2023/05/14 02:07:39;;;;;;;5.93;3.93;;;;;;;12.06;70.83;97609.84;5008655;28;20228;-67
2023/05/14 02:10:08;;;;;;;4.43;3.80;;;;;;;12.01;70.70;97612.63;5010097;28;20679;-67
2023/05/14 02:12:35;;;;;;;3.80;3.50;;;;;;;12.07;70.31;97620.19;5009994;28;20191;-65
2023/05/14 02:15:03;;;;;;;7.23;3.90;;;;;;;12.24;70.37;97612.50;5010067;28;20194;-65
2023/05/14 02:17:33;;;;;;;5.00;3.60;;;;;;;12.44;69.76;97610.81;5010143;28;20316;-77
2023/05/14 02:20:00;;;;;;;5.00;4.10;;;;;;;12.53;69.07;97606.03;5009754;28;20239;-75
2023/05/14 02:22:47;;;;;;;4.23;3.83;;;;;;;12.60;68.87;97617.00;4995775;28;20269;-74
2023/05/14 02:25:14;;;;;;;4.87;3.83;;;;;;;12.58;68.73;97611.88;4992314;28;20204;-70
2023/05/14 02:27:42;;;;;;;6.03;3.53;;;;;;;12.72;67.90;97612.09;5008468;28;20222;-68
2023/05/14 02:30:10;;;;;;;5.43;4.00;;;;;;;12.52;67.65;97612.16;5009758;28;20201;-66
2023/05/14 02:32:38;;;;;;;4.97;3.80;;;;;;;12.57;67.29;97612.78;5008398;28;20252;-65
2023/05/14 02:35:06;;;;;;;4.03;3.63;;;;;;;12.61;66.38;97614.31;5008581;28;20579;-65
2023/05/14 02:37:33;;;;;;;4.60;3.80;;;;;;;12.59;66.40;97621.34;5008273;28;20664;-69
2023/05/14 02:40:00;;;;;;;4.60;4.20;;;;;;;12.52;66.08;97599.16;5009936;28;20281;-69
2023/05/14 02:42:32;;;;;;;7.03;3.87;;;;;;;12.57;65.83;97612.78;5008234;28;20193;-73
2023/05/14 02:44:59;;;;;;;6.70;4.23;;;;;;;12.52;66.42;97609.56;5008333;28;20764;-67
2023/05/14 02:47:26;;;;;;;4.40;3.77;;;;;;;12.55;66.73;97613.78;5008083;28;20223;-72
2023/05/14 02:49:53;;;;;;;7.97;5.30;;;;;;;12.61;66.76;97611.72;5009401;28;20193;-75
2023/05/14 02:52:20;;;;;;;4.30;3.90;;;;;;;12.42;67.31;97616.06;5009454;28;20189;-66
2023/05/14 02:54:47;;;;;;;4.77;4.00;;;;;;;12.48;67.04;97621.00;5008127;28;20188;-75
2023/05/14 02:57:14;;;;;;;4.93;3.47;;;;;;;12.35;68.16;97613.78;5009545;28;20322;-74
2023/05/14 02:59:41;;;;;;;10.63;4.70;;;;;;;12.45;67.48;97623.72;5007819;28;20668;-67
2023/05/14 03:02:08;;;;;;;4.50;3.60;;;;;;;12.45;67.45;97617.66;5007770;28;20207;-69
2023/05/14 03:04:36;;;;;;;5.43;3.90;;;;;;;12.62;67.54;97617.78;5007570;28;20592;-65
2023/05/14 03:07:03;;;;;;;6.53;4.37;;;;;;;12.65;67.92;97617.66;5009080;28;20710;-67
2023/05/14 03:09:30;;;;;;;4.87;3.63;;;;;;;12.67;67.61;97619.28;5009264;28;20284;-70
2023/05/14 03:11:57;;;;;;;5.90;3.80;;;;;;;12.69;67.71;97619.19;5002014;28;20225;-69
2023/05/14 03:14:24;;;;;;;5.83;4.17;;;;;;;12.70;68.14;97613.94;5004632;28;20205;-78
2023/05/14 03:16:51;;;;;;;5.83;3.97;;;;;;;12.72;68.62;97622.50;4989424;28;20191;-65
2023/05/14 03:19:18;;;;;;;5.07;3.80;;;;;;;12.76;67.94;97623.19;4987916;28;20245;-81
2023/05/14 03:21:45;;;;;;;5.27;3.80;;;;;;;12.72;67.65;97612.09;4987855;28;20695;-65
2023/05/14 03:24:12;;;;;;;4.40;3.70;;;;;;;12.76;67.24;97610.19;4989185;28;20236;-79
2023/05/14 03:26:40;;;;;;;6.80;4.07;;;;;;;12.63;66.80;97606.47;4989105;28;20188;-65
2023/05/14 03:29:07;;;;;;;4.53;3.80;;;;;;;12.85;66.44;97623.63;4989009;28;20228;-75
2023/05/14 03:31:34;;;;;;;6.90;3.67;;;;;;;12.74;66.44;97628.47;4989230;28;20286;-70
2023/05/14 03:34:02;;;;;;;9.80;3.90;;;;;;;12.92;65.51;97624.22;4987628;28;20293;-68
2023/05/14 03:36:29;;;;;;;6.47;3.03;;;;;;;12.92;64.99;97629.41;4989258;28;20196;-70
2023/05/14 03:38:56;;;;;;;7.40;3.17;;;;;;;13.03;64.72;97637.53;4988942;28;20191;-79
2023/05/14 03:41:23;;;;;;;4.57;3.17;;;;;;;12.85;65.63;97639.25;4988696;28;20191;-65
2023/05/14 03:43:50;;;;;;;4.30;3.67;;;;;;;12.65;66.90;97626.25;4988676;28;20654;-76
2023/05/14 03:46:17;;;;;;;9.77;4.33;;;;;;;12.12;70.39;97640.75;4987417;28;20196;-81
2023/05/14 03:48:44;;;;;;;6.63;4.30;;;;;;;12.16;70.56;97639.69;4987316;28;20231;-74
2023/05/14 03:51:11;;;;;;;8.70;4.40;;;;;;;12.16;70.04;97631.91;4988517;28;20196;-66
2023/05/14 03:53:38;;;;;;;5.90;4.90;;;;;;;12.03;71.40;97635.97;4987602;28;20188;-68
2023/05/14 03:56:05;;;;;;;6.07;4.50;;;;;;;12.06;70.97;97630.63;4987241;28;20278;-71
2023/05/14 03:58:32;;;;;;;5.37;4.20;;;;;;;12.29;71.02;97635.69;4987269;28;20672;-71
2023/05/14 04:00:59;;;;;;;6.17;4.00;;;;;;;12.38;70.28;97642.25;4988495;28;20315;-65
2023/05/14 04:03:27;;;;;;;7.13;4.63;;;;;;;12.49;69.78;97635.66;4988342;28;20207;-71
2023/05/14 04:05:54;;;;;;;7.10;4.70;;;;;;;12.70;69.66;97650.31;4988091;28;20191;-68
2023/05/14 04:08:21;;;;;;;8.50;4.80;;;;;;;12.65;69.78;97647.06;4987030;28;20311;-65
2023/05/14 04:10:49;;;;;;;5.40;4.60;;;;;;;12.52;70.71;97650.28;4987057;28;20776;-68
2023/05/14 04:13:16;;;;;;;6.33;4.67;;;;;;;12.43;69.95;97661.91;4986971;28;20233;-67
2023/05/14 04:15:43;;;;;;;7.47;4.90;;;;;;;12.51;69.88;97671.97;4988202;28;20199;-68
2023/05/14 04:18:10;;;;;;;7.00;4.77;;;;;;;12.74;69.89;97672.66;4988077;28;20189;-69
2023/05/14 04:20:37;;;;;;;5.07;4.57;;;;;;;12.90;68.92;97665.03;4987911;28;20318;-66
2023/05/14 04:23:04;;;;;;;7.93;4.57;;;;;;;12.97;68.96;97663.81;4986689;28;20188;-77
2023/05/14 04:25:31;;;;;;;4.73;3.93;;;;;;;12.77;70.07;97656.09;5002727;28;20197;-75
2023/05/14 04:27:58;;;;;;;5.53;4.43;;;;;;;12.92;69.46;97653.63;4986915;28;20225;-72
2023/05/14 04:30:25;;;;;;;5.50;4.70;;;;;;;13.12;69.09;97652.75;4986441;28;20198;-70
2023/05/14 04:32:53;;;;;;;5.20;3.97;;;;;;;13.19;68.14;97650.72;4986623;28;20288;-67
2023/05/14 04:35:20;;;;;;;6.20;4.17;;;;;;;13.35;67.29;97646.50;4987818;28;20212;-70
2023/05/14 04:37:51;;;;;;;5.00;3.53;;;;;;;13.60;65.00;97652.22;4987677;28;20228;-69
2023/05/14 04:40:18;;;;;;;5.63;3.77;;;;;;;13.76;63.48;97637.56;4986038;28;20206;-66
2023/05/14 04:42:46;;;;;;;5.53;3.27;;;;;;;13.83;63.47;97625.91;4987482;28;20638;-80
2023/05/14 04:45:13;;;;;;;5.03;3.67;;;;;;;14.18;62.17;97624.16;4987706;28;20260;-73
2023/05/14 04:47:40;;;;;;;7.57;3.40;;;;;;;14.49;61.54;97621.69;4997646;28;20590;-65
2023/05/14 04:50:08;;;;;;;4.97;2.93;;;;;;;14.75;59.73;97617.72;4994899;28;20225;-69
2023/05/14 04:52:35;;;;;;;4.47;3.33;;;;;;;15.17;58.51;97636.25;4995159;28;20206;-76
2023/05/14 04:55:02;;;;;;;5.53;4.23;;;;;;;15.49;57.58;97627.56;4995283;28;20193;-67
2023/05/14 04:57:30;;;;;;;5.70;3.20;;;;;;;15.81;56.14;97625.72;4987089;28;20634;-65
2023/05/14 04:59:57;;;;;;;7.63;3.80;;;;;;;15.89;55.86;97629.56;5002341;28;20761;-66
2023/05/14 05:02:24;;;;;;;5.10;3.40;;;;;;;16.17;55.09;97639.28;4987487;28;20593;-65
2023/05/14 05:04:52;;;;;;;7.13;3.40;;;;;;;16.61;54.34;97624.44;4987139;28;20215;-65
2023/05/14 05:07:19;;;;;;;6.40;3.50;;;;;;;16.26;54.11;97641.34;4987247;28;20223;-65
2023/05/14 05:09:46;;;;;;;4.03;3.43;;;;;;;16.16;54.88;97648.88;4987204;28;20196;-82
2023/05/14 05:12:13;;;;;;;3.60;3.27;;;;;;;16.48;54.40;97667.06;4987100;28;20197;-65
2023/05/14 05:14:40;;;;;;;5.07;3.67;;;;;;;16.59;55.47;97660.28;4987217;28;20588;-66
2023/05/14 05:17:07;;;;;;;6.63;3.70;;;;;;;16.11;55.70;97664.00;4987373;28;20204;-67
2023/05/14 05:19:34;;;;;;;4.50;3.63;;;;;;;16.14;55.35;97663.81;4990709;28;20229;-79
2023/05/14 05:22:09;;;;;;;5.30;3.80;;;;;;;16.35;54.76;97661.72;4991111;28;20190;-79
2023/05/14 05:24:36;;;;;;;6.47;4.10;;;;;;;16.60;53.77;97666.38;4991589;28;20240;-78
2023/05/14 05:27:04;;;;;;;6.23;3.97;;;;;;;16.15;54.80;97670.75;4998762;28;20756;-76
2023/05/14 05:29:31;;;;;;;7.30;3.97;;;;;;;15.76;55.88;97670.41;4998788;28;20217;-69
2023/05/14 05:31:58;;;;;;;6.17;4.17;;;;;;;15.69;56.59;97676.88;4998093;28;20575;-65
2023/05/14 05:34:25;;;;;;;7.73;3.47;;;;;;;15.51;57.11;97682.28;5002012;28;20199;-69
2023/05/14 05:36:52;;;;;;;5.13;3.40;;;;;;;15.51;57.17;97683.13;4998633;28;20188;-67
2023/05/14 05:39:19;;;;;;;6.63;4.03;;;;;;;15.30;57.85;97679.88;4999156;28;20195;-68
2023/05/14 05:41:46;;;;;;;7.33;4.67;;;;;;;15.43;57.72;97693.16;4999534;28;20188;-67
2023/05/14 05:44:13;;;;;;;6.20;4.30;;;;;;;15.53;57.01;97696.94;4999909;28;20194;-66
2023/05/14 05:46:40;;;;;;;6.33;3.47;;;;;;;15.48;57.19;97706.78;5015895;28;20199;-66
2023/05/14 05:49:07;;;;;;;8.00;4.10;;;;;;;15.36;56.19;97710.88;4997973;28;20223;-65
2023/05/14 05:51:35;;;;;;;5.63;3.50;;;;;;;15.48;54.85;97712.00;4998513;28;20201;-65
2023/05/14 05:54:02;;;;;;;7.80;4.10;;;;;;;15.27;55.07;97705.31;4981272;28;20253;-66
2023/05/14 05:56:29;;;;;;;3.50;3.20;;;;;;;15.02;55.86;97697.94;5000369;28;20238;-72
2023/05/14 05:58:56;;;;;;;5.30;3.97;;;;;;;15.20;55.59;97696.13;4999289;28;20196;-74
2023/05/14 06:01:23;;;;;;;5.47;3.90;;;;;;;15.33;54.93;97697.16;4999130;28;20242;-77
2023/05/14 06:03:52;;;;;;;3.90;3.00;;;;;;;15.29;55.05;97712.13;4997871;28;20294;-65
2023/05/14 06:06:18;;;;;;;3.73;3.33;;;;;;;15.58;54.46;97710.56;4994885;28;20195;-66
2023/05/14 06:08:46;;;;;;;4.37;3.00;;;;;;;15.48;53.59;97709.38;4997582;28;20235;-65
2023/05/14 06:11:13;;;;;;;3.93;2.90;;;;;;;15.21;53.94;97700.41;4990320;28;20196;-68
2023/05/14 06:13:39;;;;;;;4.60;3.40;;;;;;;15.38;52.85;97711.63;5005014;28;20195;-67
2023/05/14 06:16:07;;;;;;;4.70;3.23;;;;;;;15.36;53.25;97699.59;4990294;28;20683;-70
2023/05/14 06:18:33;;;;;;;5.97;3.17;;;;;;;15.52;52.80;97710.09;4995306;28;20287;-70
2023/05/14 06:21:01;;;;;;;6.07;3.30;;;;;;;15.68;51.83;97700.47;4998446;28;20554;-67
2023/05/14 06:23:28;;;;;;;4.87;3.40;;;;;;;15.41;53.36;97689.75;4999350;28;20195;-67
2023/05/14 06:25:55;;;;;;;7.97;3.50;;;;;;;15.54;53.21;97695.19;5000122;28;20845;-66
2023/05/14 06:28:22;;;;;;;6.17;3.80;;;;;;;15.62;52.60;97700.81;5003726;28;20310;-67
2023/05/14 06:30:49;;;;;;;6.97;3.40;;;;;;;15.70;52.18;97694.25;5009334;28;20583;-66
2023/05/14 06:33:16;;;;;;;4.77;3.40;;;;;;;15.78;51.53;97707.72;5009525;28;20257;-66
2023/05/14 06:35:46;;;;;;;8.20;4.30;;;;;;;15.75;51.41;97701.81;5009254;28;20203;-73
2023/05/14 06:38:13;;;;;;;6.83;3.30;;;;;;;15.97;51.40;97718.78;5010001;28;20293;-77
2023/05/14 06:40:40;;;;;;;4.50;3.40;;;;;;;15.97;51.79;97708.34;5009304;28;20195;-71
2023/05/14 06:43:07;;;;;;;4.57;3.30;;;;;;;15.99;50.94;97708.28;5007829;28;20919;-78
2023/05/14 06:45:34;;;;;;;4.83;3.37;;;;;;;15.77;51.65;97711.25;5010748;28;20275;-71
2023/05/14 06:48:01;;;;;;;6.47;4.50;;;;;;;15.48;53.05;97719.81;5009525;28;20230;-75
2023/05/14 06:50:28;;;;;;;7.27;4.20;;;;;;;15.45;53.59;97706.97;5008981;28;20578;-69
2023/05/14 06:52:55;;;;;;;7.90;4.83;;;;;;;15.59;53.06;97727.94;5007354;28;20200;-76
2023/05/14 06:55:22;;;;;;;5.87;4.27;;;;;;;15.62;53.29;97721.72;5009123;28;20191;-68
2023/05/14 06:57:49;;;;;;;4.73;3.50;;;;;;;15.66;52.90;97710.97;5007808;28;20627;-80
2023/05/14 07:00:17;;;;;;;6.53;4.37;;;;;;;15.87;52.46;97722.00;5008912;28;20616;-78
2023/05/14 07:02:44;;;;;;;9.63;4.57;;;;;;;15.86;53.01;97734.25;5008906;28;20673;-79
2023/05/14 07:05:11;;;;;;;5.57;4.00;;;;;;;15.86;52.68;97736.88;5004194;28;20624;-74
2023/05/14 07:07:37;;;;;;;6.57;3.93;;;;;;;16.06;51.93;97741.81;5005944;28;20203;-79
2023/05/14 07:10:06;;;;;;;5.80;4.33;;;;;;;16.02;52.27;97742.06;5007172;28;20648;-80
2023/05/14 07:12:34;;;;;;;5.50;3.90;;;;;;;15.97;52.89;97752.75;5008598;28;20198;-67
2023/05/14 07:15:00;;;;;;;4.60;3.83;;;;;;;15.80;53.25;97750.25;5008335;28;20479;-67
2023/05/14 07:17:30;;;;;;;7.70;4.47;;;;;;;15.97;53.24;97744.91;5007533;28;20207;-68
2023/05/14 07:19:58;;;;;;;6.37;4.23;;;;;;;15.88;52.34;97744.59;4996081;28;20311;-72
2023/05/14 07:22:24;;;;;;;7.73;5.00;;;;;;;15.75;52.97;97749.66;5003033;28;20663;-74
2023/05/14 07:24:52;;;;;;;6.40;4.30;;;;;;;15.90;51.86;97742.75;5015200;28;20204;-74
2023/05/14 07:27:18;;;;;;;5.60;4.73;;;;;;;15.79;52.80;97732.88;4992540;28;20210;-72
2023/05/14 07:29:45;;;;;;;7.10;3.90;;;;;;;16.01;51.95;97746.44;5007981;28;20715;-71
2023/05/14 07:32:12;;;;;;;4.50;3.40;;;;;;;15.86;51.92;97742.09;4996274;28;20627;-70
2023/05/14 07:34:41;;;;;;;4.87;3.73;;;;;;;15.59;52.16;97690.53;4987309;28;20241;-66
2023/05/14 07:37:08;;;;;;;4.30;3.47;;;;;;;15.92;52.11;97765.25;4988437;28;20196;-65
2023/05/14 07:39:35;;;;;;;5.90;3.47;;;;;;;15.41;52.68;97749.78;4988483;28;20266;-71
2023/05/14 07:42:03;;;;;;;9.13;4.00;;;;;;;15.74;52.56;97753.22;4987588;28;20182;-66
2023/05/14 07:44:30;;;;;;;7.73;4.23;;;;;;;15.95;52.65;97754.63;5003022;28;20200;-66
2023/05/14 07:46:57;;;;;;;7.50;4.50;;;;;;;16.05;54.26;97761.00;4989158;28;20616;-77
2023/05/14 07:49:24;;;;;;;7.17;4.00;;;;;;;16.02;52.52;97753.34;5003364;28;20222;-70
2023/05/14 07:51:51;;;;;;;4.57;3.40;;;;;;;16.10;52.21;97761.59;4995074;28;20234;-75
2023/05/14 07:54:18;;;;;;;5.27;3.60;;;;;;;16.22;51.70;97758.31;5007833;28;20197;-71
2023/05/14 07:56:45;;;;;;;8.67;4.30;;;;;;;16.18;52.54;97753.31;5022863;28;20233;-68
2023/05/14 07:59:12;;;;;;;6.87;3.73;;;;;;;15.92;53.44;97752.19;5007345;28;20199;-78
2023/05/14 08:01:39;;;;;;;5.70;3.40;;;;;;;16.07;53.86;97738.25;5006092;28;20230;-74
2023/05/14 08:04:06;;;;;;;5.80;3.70;;;;;;;16.22;54.31;97744.38;5007380;28;20199;-76
2023/05/14 08:06:46;;;;;;;6.00;3.40;;;;;;;16.27;54.17;97731.91;5006268;28;20354;-68
2023/05/14 08:09:13;;;;;;;6.87;3.60;;;;;;;16.08;54.09;97744.31;5007739;28;20256;-70
2023/05/14 08:11:40;;;;;;;5.50;3.03;;;;;;;16.36;54.36;97757.53;5007416;28;20210;-76
2023/05/14 08:14:07;;;;;;;6.47;3.40;;;;;;;16.60;53.16;97763.97;5007434;28;20188;-69
2023/05/14 08:16:34;;;;;;;4.63;3.47;;;;;;;16.47;53.08;97767.34;5007226;28;20245;-74
2023/05/14 08:19:01;;;;;;;6.13;3.43;;;;;;;16.58;52.87;97770.22;5007165;28;20183;-67
2023/05/14 08:21:28;;;;;;;4.10;3.33;;;;;;;16.23;53.08;97773.06;5007177;28;20187;-73
2023/05/14 08:23:55;;;;;;;21.20;9.53;;;;;;;16.32;52.82;97770.84;5006989;28;20670;-67
2023/05/14 08:26:22;;;;;;;9.20;4.20;;;;;;;16.36;52.94;97748.84;5007277;28;20196;-69
2023/05/14 08:28:49;;;;;;;8.63;3.83;;;;;;;16.00;53.42;97756.97;5006867;28;20277;-66
2023/05/14 08:31:16;;;;;;;6.23;3.77;;;;;;;16.00;53.93;97747.38;5007000;28;20575;-79
2023/05/14 08:33:43;;;;;;;6.03;3.40;;;;;;;16.19;53.86;97763.72;5006875;28;20192;-68
2023/05/14 08:36:10;;;;;;;7.23;4.03;;;;;;;16.41;54.58;97762.47;5022031;28;20203;-72
2023/05/14 08:38:37;;;;;;;4.63;3.67;;;;;;;16.42;53.93;97772.00;5022162;28;20202;-75
2023/05/14 08:41:05;;;;;;;14.43;4.57;;;;;;;16.32;54.75;97773.47;5006613;28;20191;-77
2023/05/14 08:43:43;;;;;;;6.53;3.83;;;;;;;16.48;53.97;97782.13;4999388;28;20196;-74
2023/05/14 08:46:12;;;;;;;10.00;4.40;;;;;;;16.54;54.11;97792.25;4987675;28;20215;-74
2023/05/14 08:48:41;;;;;;;7.17;3.70;;;;;;;16.43;53.58;97792.84;4987121;28;20282;-74
2023/05/14 08:51:09;;;;;;;4.47;3.57;;;;;;;16.12;55.01;97793.72;5004376;28;20200;-78
2023/05/14 08:53:37;;;;;;;7.57;4.73;;;;;;;16.22;54.33;97801.88;5001604;28;20901;-75
2023/05/14 08:56:05;;;;;;;5.70;4.20;;;;;;;15.96;54.36;97802.50;4986606;28;20528;-75
2023/05/14 08:58:32;;;;;;;5.90;3.73;;;;;;;16.05;54.33;97802.81;4986560;28;20197;-72
2023/05/14 09:01:00;;;;;;;5.63;4.20;;;;;;;15.97;55.55;97791.13;4985964;28;20329;-71
2023/05/14 09:03:27;;;;;;;6.33;4.30;;;;;;;15.64;57.33;97788.56;5001772;28;20230;-74
2023/05/14 09:05:55;;;;;;;5.63;4.53;;;;;;;15.87;58.08;97795.16;4985708;28;20180;-72
2023/05/14 09:08:25;;;;;;;4.50;4.10;;;;;;;15.84;57.92;97796.19;4986891;28;20196;-74
2023/05/14 09:10:52;;;;;;;7.97;4.53;;;;;;;15.80;58.46;97797.28;5001971;28;20196;-74
2023/05/14 09:13:19;;;;;;;7.53;4.30;;;;;;;15.61;59.10;97795.72;4987197;28;20586;-68
2023/05/14 09:15:48;;;;;;;7.07;5.20;;;;;;;15.75;59.12;97785.38;4969394;28;20278;-68
2023/05/14 09:18:16;;;;;;;4.80;3.90;;;;;;;15.70;58.26;97796.09;4970035;28;20208;-75
2023/05/14 09:20:43;;;;;;;6.87;4.90;;;;;;;15.62;59.21;97806.06;4985320;28;20249;-76
2023/05/14 09:23:10;;;;;;;11.80;4.73;;;;;;;15.79;60.85;97810.41;5001830;28;20290;-68
2023/05/14 09:25:37;;;;;;;6.47;4.60;;;;;;;15.74;62.11;97810.66;4986575;28;20515;-71
2023/05/14 09:28:06;;;;;;;9.27;4.80;;;;;;;15.66;64.24;97802.38;4986485;28;20193;-68
2023/05/14 09:30:36;;;;;;;7.77;4.37;;;;;;;15.50;62.35;97801.50;4993916;28;20233;-81
2023/05/14 09:33:03;;;;;;;6.27;4.30;;;;;;;15.63;61.21;97801.72;4997118;28;20236;-77
2023/05/14 09:35:31;;;;;;;7.90;5.47;;;;;;;15.75;62.98;97807.13;4995735;28;20601;-75
2023/05/14 09:37:58;;;;;;;5.70;4.63;;;;;;;15.50;62.48;97770.19;4996628;28;20545;-75
2023/05/14 09:40:25;;;;;;;8.27;5.20;;;;;;;15.54;62.60;97784.75;5006617;28;20202;-75
2023/05/14 09:42:53;;;;;;;7.53;5.30;;;;;;;15.80;62.92;97783.38;5006303;28;20194;-79
2023/05/14 09:45:40;;;;;;;10.77;6.10;;;;;;;15.75;62.72;97791.44;5006052;28;20269;-69
2023/05/14 09:48:07;;;;;;;13.53;7.60;;;;;;;15.53;64.09;97775.25;5005943;28;20278;-65
2023/05/14 09:50:41;;;;;;;14.23;8.63;;;;;;;15.35;66.17;97776.22;5002448;28;20239;-67
2023/05/14 09:53:09;;;;;;;10.37;7.50;;;;;;;15.53;66.06;97774.41;5003829;28;20842;-66
2023/05/14 09:55:37;;;;;;;7.10;6.10;;;;;;;15.33;67.03;97765.00;5006838;28;20728;-67
2023/05/14 09:58:04;;;;;;;10.03;5.93;;;;;;;15.15;65.97;97764.19;5006928;28;20192;-66
2023/05/14 10:00:32;;;;;;;8.47;5.83;;;;;;;15.25;66.94;97754.13;5006571;28;20241;-66
2023/05/14 10:03:04;;;;;;;6.53;4.30;;;;;;;14.94;66.98;97759.28;5004949;28;20619;-64
2023/05/14 10:05:36;;;;;;;6.50;4.43;;;;;;;15.09;66.77;97742.81;5009484;28;20275;-67
2023/05/14 10:08:11;;;;;;;8.00;5.07;;;;;;;14.96;69.12;97741.78;5009298;28;20293;-76
2023/05/14 10:10:38;;;;;;;8.30;4.77;;;;;;;15.37;66.65;97753.47;5010290;28;20229;-69
2023/05/14 10:13:19;;;;;;;8.60;4.40;;;;;;;15.04;67.09;97756.09;5008657;28;20698;-66
2023/05/14 10:16:19;;;;;;;5.47;3.43;;;;;;;15.04;66.20;97750.91;5009607;28;20200;-71
2023/05/14 10:18:51;;;;;;;4.80;4.37;;;;;;;15.33;66.51;97736.31;5009866;28;20203;-67
2023/05/14 10:21:21;;;;;;;6.53;5.23;;;;;;;15.35;66.13;97713.56;5009503;28;20282;-68
2023/05/14 10:23:49;;;;;;;4.10;3.63;;;;;;;15.27;63.47;97707.94;5009721;28;20689;-70
2023/05/14 10:26:17;;;;;;;5.30;4.07;;;;;;;15.65;63.49;97726.75;5008324;28;20670;-70
2023/05/14 10:28:44;;;;;;;6.63;4.50;;;;;;;15.99;65.57;97713.50;5009047;28;20195;-79
2023/05/14 10:32:06;;;;;;;4.77;3.93;;;;;;;16.05;63.36;97716.59;5009526;28;20198;-68
2023/05/14 10:34:47;;;;;;;6.27;4.13;;;;;;;16.59;63.20;97732.69;5003878;28;20196;-81
2023/05/14 10:37:18;;;;;;;9.03;4.20;;;;;;;16.42;62.52;97743.25;5009683;28;20646;-70
2023/05/14 10:40:01;;;;;;;7.37;4.40;;;;;;;16.52;64.35;97732.22;5009042;28;20201;-68
2023/05/14 10:42:38;;;;;;;7.10;4.67;;;;;;;16.39;63.25;97712.03;5007181;28;20653;-65
2023/05/14 10:45:08;;;;;;;5.20;4.37;;;;;;;16.40;62.23;97711.13;5000289;28;20192;-66
2023/05/14 10:47:36;;;;;;;7.00;5.10;;;;;;;16.02;64.04;97718.53;4999496;28;20191;-72
2023/05/14 10:50:09;;;;;;;7.67;5.20;;;;;;;16.33;62.27;97717.63;4998088;28;20207;-75
2023/05/14 10:52:36;;;;;;;5.70;4.27;;;;;;;16.01;60.17;97717.69;5014103;28;20195;-68
2023/05/14 10:55:11;;;;;;;5.83;4.40;;;;;;;16.04;60.15;97703.63;5008387;28;20204;-68
2023/05/14 10:57:41;;;;;;;4.73;3.97;;;;;;;16.09;60.95;97693.75;5009052;28;20208;-67
2023/05/14 11:00:09;;;;;;;5.37;4.60;;;;;;;16.42;61.14;97693.59;5008991;28;20249;-71
2023/05/14 11:02:39;;;;;;;6.10;4.90;;;;;;;16.58;63.77;97687.41;5009223;28;20624;-66
2023/05/14 11:05:08;;;;;;;4.53;3.77;;;;;;;16.71;59.36;97703.19;5009308;28;20238;-75
2023/05/14 11:07:37;;;;;;;6.67;4.50;;;;;;;16.78;58.78;97694.03;5009369;28;20218;-76
2023/05/14 11:10:12;;;;;;;6.67;4.50;;;;;;;16.81;60.75;97686.03;5000609;28;20600;-70
2023/05/14 11:12:41;;;;;;;6.53;4.67;;;;;;;16.31;62.21;97696.81;5008570;28;20237;-71
2023/05/14 11:15:10;;;;;;;5.07;4.57;;;;;;;16.04;64.44;97699.25;5005430;28;20603;-69
2023/05/14 11:17:39;;;;;;;5.90;4.80;;;;;;;16.19;64.21;97695.78;5003911;28;21011;-73
2023/05/14 11:20:08;;;;;;;4.57;4.07;;;;;;;16.00;64.60;97691.66;4998385;28;20236;-78
2023/05/14 11:22:36;;;;;;;8.63;5.20;;;;;;;16.23;64.99;97688.59;5008596;28;20207;-80
2023/05/14 11:25:05;;;;;;;10.77;5.10;;;;;;;16.54;66.74;97677.19;4990994;28;20740;-73
2023/05/14 11:27:57;;;;;;;5.93;4.33;;;;;;;16.89;64.56;97695.09;5008795;28;20755;-82
2023/05/14 11:30:24;;;;;;;4.77;3.93;;;;;;;16.92;60.42;97689.66;5008713;28;20224;-81
2023/05/14 11:32:52;;;;;;;5.40;4.20;;;;;;;16.74;63.22;97680.31;5008910;28;20703;-79
2023/05/14 11:35:20;;;;;;;4.83;4.13;;;;;;;16.39;62.61;97673.69;5008621;28;20253;-80
2023/05/14 11:37:51;;;;;;;5.57;3.77;;;;;;;16.42;61.85;97680.50;5008834;28;20193;-67
2023/05/14 11:40:19;;;;;;;5.53;4.50;;;;;;;16.34;63.38;97675.75;5008580;28;20233;-66
2023/05/14 11:42:50;;;;;;;5.20;4.33;;;;;;;16.47;61.79;97683.69;5007053;28;20199;-70